sensor_id;sensor_type;location;lat;lon;timestamp;P1;P2;P0
55754;PMS5003;41674;52.290;-1.474;2023-06-22T00:01:08;11;11;
55754;PMS5003;41674;52.290;-1.474;2023-06-22T00:03:37;9;9;
55754;PMS5003;41674;52.290;-1.474;2023-06-22T00:06:07;12;8;
55754;PMS5003;41674;52.290;-1.474;2023-06-22T00:08:36;11;10;
55754;PMS5003;41674;52.290;-1.474;2023-06-22T00:11:06;10;10;
55754;PMS5003;41674;52.290;-1.474;2023-06-22T00:13:35;9;8;
55754;PMS5003;41674;52.290;-1.474;2023-06-22T00:16:05;12;10;
55754;PMS5003;41674;52.290;-1.474;2023-06-22T00:18:34;9;9;
55754;PMS5003;41674;52.290;-1.474;2023-06-22T00:21:04;6;6;
55754;PMS5003;41674;52.290;-1.474;2023-06-22T00:23:34;9;9;
55754;PMS5003;41674;52.290;-1.474;2023-06-22T00:26:03;9;9;
55754;PMS5003;41674;52.290;-1.474;2023-06-22T00:28:33;11;9;
55754;PMS5003;41674;52.290;-1.474;2023-06-22T00:31:02;10;9;
55754;PMS5003;41674;52.290;-1.474;2023-06-22T00:33:31;8;7;
55754;PMS5003;41674;52.290;-1.474;2023-06-22T00:36:01;8;8;
55754;PMS5003;41674;52.290;-1.474;2023-06-22T00:38:30;9;9;
55754;PMS5003;41674;52.290;-1.474;2023-06-22T00:41:00;8;8;
55754;PMS5003;41674;52.290;-1.474;2023-06-22T00:43:29;8;8;
55754;PMS5003;41674;52.290;-1.474;2023-06-22T00:45:59;9;9;
55754;PMS5003;41674;52.290;-1.474;2023-06-22T00:48:28;9;9;
55754;PMS5003;41674;52.290;-1.474;2023-06-22T00:50:58;11;9;
55754;PMS5003;41674;52.290;-1.474;2023-06-22T00:53:27;10;9;
55754;PMS5003;41674;52.290;-1.474;2023-06-22T00:55:57;9;9;
55754;PMS5003;41674;52.290;-1.474;2023-06-22T00:58:26;8;8;
55754;PMS5003;41674;52.290;-1.474;2023-06-22T01:00:56;9;9;
55754;PMS5003;41674;52.290;-1.474;2023-06-22T01:03:30;9;8;
55754;PMS5003;41674;52.290;-1.474;2023-06-22T01:05:56;14;11;
55754;PMS5003;41674;52.290;-1.474;2023-06-22T01:08:27;8;8;
55754;PMS5003;41674;52.290;-1.474;2023-06-22T01:10:57;11;9;
55754;PMS5003;41674;52.290;-1.474;2023-06-22T01:13:25;9;9;
55754;PMS5003;41674;52.290;-1.474;2023-06-22T01:18:22;15;13;
55754;PMS5003;41674;52.290;-1.474;2023-06-22T01:20:52;14;11;
55754;PMS5003;41674;52.290;-1.474;2023-06-22T01:23:26;9;9;
55754;PMS5003;41674;52.290;-1.474;2023-06-22T01:25:57;8;7;
55754;PMS5003;41674;52.290;-1.474;2023-06-22T01:28:24;11;10;
55754;PMS5003;41674;52.290;-1.474;2023-06-22T01:30:49;10;9;
55754;PMS5003;41674;52.290;-1.474;2023-06-22T01:33:19;9;9;
55754;PMS5003;41674;52.290;-1.474;2023-06-22T01:35:49;11;10;
55754;PMS5003;41674;52.290;-1.474;2023-06-22T01:38:18;9;9;
55754;PMS5003;41674;52.290;-1.474;2023-06-22T01:40:48;9;9;
55754;PMS5003;41674;52.290;-1.474;2023-06-22T01:43:17;10;8;
55754;PMS5003;41674;52.290;-1.474;2023-06-22T01:45:47;12;9;
55754;PMS5003;41674;52.290;-1.474;2023-06-22T01:48:16;10;10;
55754;PMS5003;41674;52.290;-1.474;2023-06-22T01:50:46;12;11;
55754;PMS5003;41674;52.290;-1.474;2023-06-22T01:53:15;7;7;
55754;PMS5003;41674;52.290;-1.474;2023-06-22T01:55:45;8;8;
55754;PMS5003;41674;52.290;-1.474;2023-06-22T01:58:14;8;8;
55754;PMS5003;41674;52.290;-1.474;2023-06-22T02:00:44;6;6;
55754;PMS5003;41674;52.290;-1.474;2023-06-22T02:03:14;12;9;
55754;PMS5003;41674;52.290;-1.474;2023-06-22T02:05:46;8;8;
55754;PMS5003;41674;52.290;-1.474;2023-06-22T02:08:13;10;8;
55754;PMS5003;41674;52.290;-1.474;2023-06-22T02:10:42;14;11;
55754;PMS5003;41674;52.290;-1.474;2023-06-22T02:13:11;11;11;
55754;PMS5003;41674;52.290;-1.474;2023-06-22T02:15:41;9;8;
55754;PMS5003;41674;52.290;-1.474;2023-06-22T02:18:10;8;8;
55754;PMS5003;41674;52.290;-1.474;2023-06-22T02:20:40;12;11;
55754;PMS5003;41674;52.290;-1.474;2023-06-22T02:25:39;9;9;
55754;PMS5003;41674;52.290;-1.474;2023-06-22T02:28:09;11;8;
55754;PMS5003;41674;52.290;-1.474;2023-06-22T02:30:38;10;10;
55754;PMS5003;41674;52.290;-1.474;2023-06-22T02:33:08;8;7;
55754;PMS5003;41674;52.290;-1.474;2023-06-22T02:35:37;9;9;
55754;PMS5003;41674;52.290;-1.474;2023-06-22T02:38:07;9;9;
55754;PMS5003;41674;52.290;-1.474;2023-06-22T02:40:36;8;8;
55754;PMS5003;41674;52.290;-1.474;2023-06-22T02:43:06;10;9;
55754;PMS5003;41674;52.290;-1.474;2023-06-22T02:45:35;14;10;
55754;PMS5003;41674;52.290;-1.474;2023-06-22T02:48:05;8;7;
55754;PMS5003;41674;52.290;-1.474;2023-06-22T02:50:34;11;10;
55754;PMS5003;41674;52.290;-1.474;2023-06-22T02:53:03;7;7;
55754;PMS5003;41674;52.290;-1.474;2023-06-22T02:55:33;8;8;
55754;PMS5003;41674;52.290;-1.474;2023-06-22T02:58:03;8;8;
55754;PMS5003;41674;52.290;-1.474;2023-06-22T03:00:32;11;10;
55754;PMS5003;41674;52.290;-1.474;2023-06-22T03:03:02;10;8;
55754;PMS5003;41674;52.290;-1.474;2023-06-22T03:05:31;11;11;
55754;PMS5003;41674;52.290;-1.474;2023-06-22T03:08:01;6;6;
55754;PMS5003;41674;52.290;-1.474;2023-06-22T03:10:30;8;8;
55754;PMS5003;41674;52.290;-1.474;2023-06-22T03:13:00;7;6;
55754;PMS5003;41674;52.290;-1.474;2023-06-22T03:15:29;9;7;
55754;PMS5003;41674;52.290;-1.474;2023-06-22T03:17:59;10;9;
55754;PMS5003;41674;52.290;-1.474;2023-06-22T03:20:29;8;8;
55754;PMS5003;41674;52.290;-1.474;2023-06-22T03:22:58;9;8;
55754;PMS5003;41674;52.290;-1.474;2023-06-22T03:25:27;9;9;
55754;PMS5003;41674;52.290;-1.474;2023-06-22T03:27:57;12;10;
55754;PMS5003;41674;52.290;-1.474;2023-06-22T03:30:26;9;9;
55754;PMS5003;41674;52.290;-1.474;2023-06-22T03:35:30;7;6;
55754;PMS5003;41674;52.290;-1.474;2023-06-22T03:37:55;8;8;
55754;PMS5003;41674;52.290;-1.474;2023-06-22T03:40:24;12;10;
55754;PMS5003;41674;52.290;-1.474;2023-06-22T03:42:54;10;9;
55754;PMS5003;41674;52.290;-1.474;2023-06-22T03:45:23;8;8;
55754;PMS5003;41674;52.290;-1.474;2023-06-22T03:47:53;10;10;
55754;PMS5003;41674;52.290;-1.474;2023-06-22T03:50:22;9;9;
55754;PMS5003;41674;52.290;-1.474;2023-06-22T03:52:52;9;9;
55754;PMS5003;41674;52.290;-1.474;2023-06-22T03:55:22;7;7;
55754;PMS5003;41674;52.290;-1.474;2023-06-22T03:57:51;12;10;
55754;PMS5003;41674;52.290;-1.474;2023-06-22T04:00:21;8;8;
55754;PMS5003;41674;52.290;-1.474;2023-06-22T04:02:50;11;9;
55754;PMS5003;41674;52.290;-1.474;2023-06-22T04:05:20;12;7;
55754;PMS5003;41674;52.290;-1.474;2023-06-22T04:07:49;8;8;
55754;PMS5003;41674;52.290;-1.474;2023-06-22T04:10:19;11;8;
55754;PMS5003;41674;52.290;-1.474;2023-06-22T04:12:48;6;6;
55754;PMS5003;41674;52.290;-1.474;2023-06-22T04:15:18;8;7;
55754;PMS5003;41674;52.290;-1.474;2023-06-22T04:17:47;9;9;
55754;PMS5003;41674;52.290;-1.474;2023-06-22T04:20:16;9;9;
55754;PMS5003;41674;52.290;-1.474;2023-06-22T04:22:46;11;9;
55754;PMS5003;41674;52.290;-1.474;2023-06-22T04:25:16;7;7;
55754;PMS5003;41674;52.290;-1.474;2023-06-22T04:27:45;10;10;
55754;PMS5003;41674;52.290;-1.474;2023-06-22T04:30:15;11;9;
55754;PMS5003;41674;52.290;-1.474;2023-06-22T04:32:44;10;9;
55754;PMS5003;41674;52.290;-1.474;2023-06-22T04:35:14;10;9;
55754;PMS5003;41674;52.290;-1.474;2023-06-22T04:37:43;9;9;
55754;PMS5003;41674;52.290;-1.474;2023-06-22T04:40:13;9;9;
55754;PMS5003;41674;52.290;-1.474;2023-06-22T04:42:42;10;10;
55754;PMS5003;41674;52.290;-1.474;2023-06-22T04:45:12;10;10;
55754;PMS5003;41674;52.290;-1.474;2023-06-22T04:47:42;8;8;
55754;PMS5003;41674;52.290;-1.474;2023-06-22T04:50:12;9;8;
55754;PMS5003;41674;52.290;-1.474;2023-06-22T04:52:41;9;9;
55754;PMS5003;41674;52.290;-1.474;2023-06-22T04:55:10;13;12;
55754;PMS5003;41674;52.290;-1.474;2023-06-22T04:57:39;8;8;
55754;PMS5003;41674;52.290;-1.474;2023-06-22T05:00:10;11;11;
55754;PMS5003;41674;52.290;-1.474;2023-06-22T05:02:38;11;10;
55754;PMS5003;41674;52.290;-1.474;2023-06-22T05:05:08;13;10;
55754;PMS5003;41674;52.290;-1.474;2023-06-22T05:07:37;12;11;
55754;PMS5003;41674;52.290;-1.474;2023-06-22T05:10:07;11;10;
55754;PMS5003;41674;52.290;-1.474;2023-06-22T05:12:36;10;10;
55754;PMS5003;41674;52.290;-1.474;2023-06-22T05:15:06;9;9;
55754;PMS5003;41674;52.290;-1.474;2023-06-22T05:17:35;8;8;
55754;PMS5003;41674;52.290;-1.474;2023-06-22T05:20:05;11;11;
55754;PMS5003;41674;52.290;-1.474;2023-06-22T05:22:34;17;13;
55754;PMS5003;41674;52.290;-1.474;2023-06-22T05:25:05;14;11;
55754;PMS5003;41674;52.290;-1.474;2023-06-22T05:27:33;13;12;
55754;PMS5003;41674;52.290;-1.474;2023-06-22T05:30:02;15;13;
55754;PMS5003;41674;52.290;-1.474;2023-06-22T05:32:32;14;13;
55754;PMS5003;41674;52.290;-1.474;2023-06-22T05:35:01;13;11;
55754;PMS5003;41674;52.290;-1.474;2023-06-22T05:37:30;13;11;
55754;PMS5003;41674;52.290;-1.474;2023-06-22T05:40:00;12;11;
55754;PMS5003;41674;52.290;-1.474;2023-06-22T05:42:29;12;12;
55754;PMS5003;41674;52.290;-1.474;2023-06-22T05:44:59;16;15;
55754;PMS5003;41674;52.290;-1.474;2023-06-22T05:47:28;15;12;
55754;PMS5003;41674;52.290;-1.474;2023-06-22T05:49:57;15;13;
55754;PMS5003;41674;52.290;-1.474;2023-06-22T05:52:27;15;14;
55754;PMS5003;41674;52.290;-1.474;2023-06-22T05:54:56;18;17;
55754;PMS5003;41674;52.290;-1.474;2023-06-22T05:57:26;18;15;
55754;PMS5003;41674;52.290;-1.474;2023-06-22T05:59:55;13;13;
55754;PMS5003;41674;52.290;-1.474;2023-06-22T06:02:25;23;18;
55754;PMS5003;41674;52.290;-1.474;2023-06-22T06:04:54;16;13;
55754;PMS5003;41674;52.290;-1.474;2023-06-22T06:07:24;17;14;
55754;PMS5003;41674;52.290;-1.474;2023-06-22T06:09:53;14;12;
55754;PMS5003;41674;52.290;-1.474;2023-06-22T06:12:23;17;15;
55754;PMS5003;41674;52.290;-1.474;2023-06-22T06:14:57;13;13;
55754;PMS5003;41674;52.290;-1.474;2023-06-22T06:17:22;15;12;
55754;PMS5003;41674;52.290;-1.474;2023-06-22T06:19:51;19;17;
55754;PMS5003;41674;52.290;-1.474;2023-06-22T06:22:20;12;11;
55754;PMS5003;41674;52.290;-1.474;2023-06-22T06:24:50;17;15;
55754;PMS5003;41674;52.290;-1.474;2023-06-22T06:27:19;13;13;
55754;PMS5003;41674;52.290;-1.474;2023-06-22T06:29:49;17;13;
55754;PMS5003;41674;52.290;-1.474;2023-06-22T06:32:23;16;14;
55754;PMS5003;41674;52.290;-1.474;2023-06-22T06:34:48;20;18;
55754;PMS5003;41674;52.290;-1.474;2023-06-22T06:37:18;15;14;
55754;PMS5003;41674;52.290;-1.474;2023-06-22T06:39:47;17;14;
55754;PMS5003;41674;52.290;-1.474;2023-06-22T06:42:16;17;16;
55754;PMS5003;41674;52.290;-1.474;2023-06-22T06:44:45;16;16;
55754;PMS5003;41674;52.290;-1.474;2023-06-22T06:47:16;17;16;
55754;PMS5003;41674;52.290;-1.474;2023-06-22T06:49:45;16;15;
55754;PMS5003;41674;52.290;-1.474;2023-06-22T06:52:14;18;15;
55754;PMS5003;41674;52.290;-1.474;2023-06-22T06:54:44;16;16;
55754;PMS5003;41674;52.290;-1.474;2023-06-22T06:57:13;15;15;
55754;PMS5003;41674;52.290;-1.474;2023-06-22T06:59:43;17;17;
55754;PMS5003;41674;52.290;-1.474;2023-06-22T07:02:12;16;16;
55754;PMS5003;41674;52.290;-1.474;2023-06-22T07:04:42;16;15;
55754;PMS5003;41674;52.290;-1.474;2023-06-22T07:07:11;18;15;
55754;PMS5003;41674;52.290;-1.474;2023-06-22T07:09:40;14;13;
55754;PMS5003;41674;52.290;-1.474;2023-06-22T07:12:10;17;17;
55754;PMS5003;41674;52.290;-1.474;2023-06-22T07:14:39;21;16;
55754;PMS5003;41674;52.290;-1.474;2023-06-22T07:17:08;13;13;
55754;PMS5003;41674;52.290;-1.474;2023-06-22T07:19:38;18;16;
55754;PMS5003;41674;52.290;-1.474;2023-06-22T07:22:08;16;16;
55754;PMS5003;41674;52.290;-1.474;2023-06-22T07:24:38;14;14;
55754;PMS5003;41674;52.290;-1.474;2023-06-22T07:27:07;18;17;
55754;PMS5003;41674;52.290;-1.474;2023-06-22T07:29:37;19;17;
55754;PMS5003;41674;52.290;-1.474;2023-06-22T07:32:06;20;18;
55754;PMS5003;41674;52.290;-1.474;2023-06-22T07:34:35;16;16;
55754;PMS5003;41674;52.290;-1.474;2023-06-22T07:37:05;18;18;
55754;PMS5003;41674;52.290;-1.474;2023-06-22T07:39:34;17;17;
55754;PMS5003;41674;52.290;-1.474;2023-06-22T07:42:04;16;14;
55754;PMS5003;41674;52.290;-1.474;2023-06-22T07:44:33;21;20;
55754;PMS5003;41674;52.290;-1.474;2023-06-22T07:47:03;16;14;
55754;PMS5003;41674;52.290;-1.474;2023-06-22T07:49:32;18;15;
55754;PMS5003;41674;52.290;-1.474;2023-06-22T07:52:02;17;16;
55754;PMS5003;41674;52.290;-1.474;2023-06-22T07:54:31;16;15;
55754;PMS5003;41674;52.290;-1.474;2023-06-22T07:57:01;18;17;
55754;PMS5003;41674;52.290;-1.474;2023-06-22T07:59:31;18;17;
55754;PMS5003;41674;52.290;-1.474;2023-06-22T08:02:00;15;14;
55754;PMS5003;41674;52.290;-1.474;2023-06-22T08:04:30;15;15;
55754;PMS5003;41674;52.290;-1.474;2023-06-22T08:07:00;16;15;
55754;PMS5003;41674;52.290;-1.474;2023-06-22T08:09:29;15;15;
55754;PMS5003;41674;52.290;-1.474;2023-06-22T08:11:58;21;20;
55754;PMS5003;41674;52.290;-1.474;2023-06-22T08:14:29;20;18;
55754;PMS5003;41674;52.290;-1.474;2023-06-22T08:16:56;16;14;
55754;PMS5003;41674;52.290;-1.474;2023-06-22T08:19:26;15;15;
55754;PMS5003;41674;52.290;-1.474;2023-06-22T08:21:56;13;13;
55754;PMS5003;41674;52.290;-1.474;2023-06-22T08:24:25;15;14;
55754;PMS5003;41674;52.290;-1.474;2023-06-22T08:26:55;14;13;
55754;PMS5003;41674;52.290;-1.474;2023-06-22T08:29:24;21;20;
55754;PMS5003;41674;52.290;-1.474;2023-06-22T08:31:53;18;15;
55754;PMS5003;41674;52.290;-1.474;2023-06-22T08:34:22;18;18;
55754;PMS5003;41674;52.290;-1.474;2023-06-22T08:36:51;20;16;
55754;PMS5003;41674;52.290;-1.474;2023-06-22T08:39:21;22;18;
55754;PMS5003;41674;52.290;-1.474;2023-06-22T08:41:51;21;17;
55754;PMS5003;41674;52.290;-1.474;2023-06-22T08:44:20;17;15;
55754;PMS5003;41674;52.290;-1.474;2023-06-22T08:46:49;18;18;
55754;PMS5003;41674;52.290;-1.474;2023-06-22T08:49:19;19;18;
55754;PMS5003;41674;52.290;-1.474;2023-06-22T08:51:48;24;21;
55754;PMS5003;41674;52.290;-1.474;2023-06-22T08:54:17;19;19;
55754;PMS5003;41674;52.290;-1.474;2023-06-22T08:56:46;21;18;
55754;PMS5003;41674;52.290;-1.474;2023-06-22T08:59:16;14;13;
55754;PMS5003;41674;52.290;-1.474;2023-06-22T09:01:46;16;16;
55754;PMS5003;41674;52.290;-1.474;2023-06-22T09:04:15;21;20;
55754;PMS5003;41674;52.290;-1.474;2023-06-22T09:06:44;15;12;
55754;PMS5003;41674;52.290;-1.474;2023-06-22T09:09:15;12;10;
55754;PMS5003;41674;52.290;-1.474;2023-06-22T09:11:43;13;12;
55754;PMS5003;41674;52.290;-1.474;2023-06-22T09:14:13;12;9;
55754;PMS5003;41674;52.290;-1.474;2023-06-22T09:16:43;8;8;
55754;PMS5003;41674;52.290;-1.474;2023-06-22T09:19:12;10;10;
55754;PMS5003;41674;52.290;-1.474;2023-06-22T09:21:44;15;12;
55754;PMS5003;41674;52.290;-1.474;2023-06-22T09:24:11;11;11;
55754;PMS5003;41674;52.290;-1.474;2023-06-22T09:26:40;9;8;
55754;PMS5003;41674;52.290;-1.474;2023-06-22T09:29:10;11;10;
55754;PMS5003;41674;52.290;-1.474;2023-06-22T09:31:39;9;9;
55754;PMS5003;41674;52.290;-1.474;2023-06-22T09:34:09;9;9;
55754;PMS5003;41674;52.290;-1.474;2023-06-22T09:36:38;8;7;
55754;PMS5003;41674;52.290;-1.474;2023-06-22T09:39:08;8;8;
55754;PMS5003;41674;52.290;-1.474;2023-06-22T09:41:37;9;9;
55754;PMS5003;41674;52.290;-1.474;2023-06-22T09:44:07;9;9;
55754;PMS5003;41674;52.290;-1.474;2023-06-22T09:46:36;10;10;
55754;PMS5003;41674;52.290;-1.474;2023-06-22T09:49:05;8;8;
55754;PMS5003;41674;52.290;-1.474;2023-06-22T09:51:35;12;9;
55754;PMS5003;41674;52.290;-1.474;2023-06-22T09:54:04;14;13;
55754;PMS5003;41674;52.290;-1.474;2023-06-22T09:56:34;12;11;
55754;PMS5003;41674;52.290;-1.474;2023-06-22T09:59:03;11;9;
55754;PMS5003;41674;52.290;-1.474;2023-06-22T10:01:33;11;10;
55754;PMS5003;41674;52.290;-1.474;2023-06-22T10:04:02;8;7;
55754;PMS5003;41674;52.290;-1.474;2023-06-22T10:06:31;12;8;
55754;PMS5003;41674;52.290;-1.474;2023-06-22T10:09:01;11;10;
55754;PMS5003;41674;52.290;-1.474;2023-06-22T10:11:30;9;9;
55754;PMS5003;41674;52.290;-1.474;2023-06-22T10:14:00;14;11;
55754;PMS5003;41674;52.290;-1.474;2023-06-22T10:16:30;13;13;
55754;PMS5003;41674;52.290;-1.474;2023-06-22T10:18:58;13;11;
55754;PMS5003;41674;52.290;-1.474;2023-06-22T10:21:28;13;11;
55754;PMS5003;41674;52.290;-1.474;2023-06-22T10:23:57;14;13;
55754;PMS5003;41674;52.290;-1.474;2023-06-22T10:26:26;14;13;
55754;PMS5003;41674;52.290;-1.474;2023-06-22T10:28:55;15;12;
55754;PMS5003;41674;52.290;-1.474;2023-06-22T10:31:25;13;11;
55754;PMS5003;41674;52.290;-1.474;2023-06-22T10:33:55;13;13;
55754;PMS5003;41674;52.290;-1.474;2023-06-22T10:36:24;15;15;
55754;PMS5003;41674;52.290;-1.474;2023-06-22T10:38:53;17;15;
55754;PMS5003;41674;52.290;-1.474;2023-06-22T10:41:22;12;11;
55754;PMS5003;41674;52.290;-1.474;2023-06-22T10:43:52;16;14;
55754;PMS5003;41674;52.290;-1.474;2023-06-22T10:46:21;14;12;
55754;PMS5003;41674;52.290;-1.474;2023-06-22T10:48:51;12;11;
55754;PMS5003;41674;52.290;-1.474;2023-06-22T10:51:20;12;12;
55754;PMS5003;41674;52.290;-1.474;2023-06-22T10:53:50;18;16;
55754;PMS5003;41674;52.290;-1.474;2023-06-22T10:56:19;12;10;
55754;PMS5003;41674;52.290;-1.474;2023-06-22T10:58:49;12;12;
55754;PMS5003;41674;52.290;-1.474;2023-06-22T11:01:18;9;8;
55754;PMS5003;41674;52.290;-1.474;2023-06-22T11:03:48;10;9;
55754;PMS5003;41674;52.290;-1.474;2023-06-22T11:06:17;9;9;
55754;PMS5003;41674;52.290;-1.474;2023-06-22T11:08:46;11;11;
55754;PMS5003;41674;52.290;-1.474;2023-06-22T11:11:16;10;7;
55754;PMS5003;41674;52.290;-1.474;2023-06-22T11:13:45;12;12;
55754;PMS5003;41674;52.290;-1.474;2023-06-22T11:16:14;13;12;
55754;PMS5003;41674;52.290;-1.474;2023-06-22T11:18:43;11;11;
55754;PMS5003;41674;52.290;-1.474;2023-06-22T11:21:13;11;11;
55754;PMS5003;41674;52.290;-1.474;2023-06-22T11:23:42;8;7;
55754;PMS5003;41674;52.290;-1.474;2023-06-22T11:26:12;9;8;
55754;PMS5003;41674;52.290;-1.474;2023-06-22T11:28:41;8;8;
55754;PMS5003;41674;52.290;-1.474;2023-06-22T11:31:11;8;8;
55754;PMS5003;41674;52.290;-1.474;2023-06-22T11:33:40;9;9;
55754;PMS5003;41674;52.290;-1.474;2023-06-22T11:36:10;7;7;
55754;PMS5003;41674;52.290;-1.474;2023-06-22T11:38:39;11;10;
55754;PMS5003;41674;52.290;-1.474;2023-06-22T11:41:09;7;7;
55754;PMS5003;41674;52.290;-1.474;2023-06-22T11:43:38;9;9;
55754;PMS5003;41674;52.290;-1.474;2023-06-22T11:46:07;8;8;
55754;PMS5003;41674;52.290;-1.474;2023-06-22T11:48:37;15;12;
55754;PMS5003;41674;52.290;-1.474;2023-06-22T11:51:06;9;8;
55754;PMS5003;41674;52.290;-1.474;2023-06-22T11:53:36;9;8;
55754;PMS5003;41674;52.290;-1.474;2023-06-22T11:56:05;9;9;
55754;PMS5003;41674;52.290;-1.474;2023-06-22T11:58:35;9;7;
55754;PMS5003;41674;52.290;-1.474;2023-06-22T12:03:34;11;10;
55754;PMS5003;41674;52.290;-1.474;2023-06-22T12:06:03;9;8;
55754;PMS5003;41674;52.290;-1.474;2023-06-22T12:08:33;8;6;
55754;PMS5003;41674;52.290;-1.474;2023-06-22T12:11:02;10;10;
55754;PMS5003;41674;52.290;-1.474;2023-06-22T12:13:32;11;7;
55754;PMS5003;41674;52.290;-1.474;2023-06-22T12:18:30;10;10;
55754;PMS5003;41674;52.290;-1.474;2023-06-22T12:21:00;6;6;
55754;PMS5003;41674;52.290;-1.474;2023-06-22T12:23:30;10;9;
55754;PMS5003;41674;52.290;-1.474;2023-06-22T12:25:59;7;7;
55754;PMS5003;41674;52.290;-1.474;2023-06-22T12:28:28;8;8;
55754;PMS5003;41674;52.290;-1.474;2023-06-22T12:30:58;8;8;
55754;PMS5003;41674;52.290;-1.474;2023-06-22T12:33:27;9;9;
55754;PMS5003;41674;52.290;-1.474;2023-06-22T12:35:57;10;9;
55754;PMS5003;41674;52.290;-1.474;2023-06-22T12:38:26;9;8;
55754;PMS5003;41674;52.290;-1.474;2023-06-22T12:40:56;11;9;
55754;PMS5003;41674;52.290;-1.474;2023-06-22T12:43:25;7;7;
55754;PMS5003;41674;52.290;-1.474;2023-06-22T12:45:55;9;9;
55754;PMS5003;41674;52.290;-1.474;2023-06-22T12:48:25;9;7;
55754;PMS5003;41674;52.290;-1.474;2023-06-22T12:50:54;10;9;
55754;PMS5003;41674;52.290;-1.474;2023-06-22T12:53:24;12;9;
55754;PMS5003;41674;52.290;-1.474;2023-06-22T12:55:53;7;7;
55754;PMS5003;41674;52.290;-1.474;2023-06-22T12:58:22;9;8;
55754;PMS5003;41674;52.290;-1.474;2023-06-22T13:00:51;10;9;
55754;PMS5003;41674;52.290;-1.474;2023-06-22T13:03:21;7;7;
55754;PMS5003;41674;52.290;-1.474;2023-06-22T13:05:50;8;8;
55754;PMS5003;41674;52.290;-1.474;2023-06-22T13:08:20;14;11;
55754;PMS5003;41674;52.290;-1.474;2023-06-22T13:10:49;8;8;
55754;PMS5003;41674;52.290;-1.474;2023-06-22T13:13:19;9;9;
55754;PMS5003;41674;52.290;-1.474;2023-06-22T13:15:48;14;12;
55754;PMS5003;41674;52.290;-1.474;2023-06-22T13:18:17;11;10;
55754;PMS5003;41674;52.290;-1.474;2023-06-22T13:20:47;8;8;
55754;PMS5003;41674;52.290;-1.474;2023-06-22T13:23:16;12;11;
55754;PMS5003;41674;52.290;-1.474;2023-06-22T13:25:46;9;8;
55754;PMS5003;41674;52.290;-1.474;2023-06-22T13:28:15;10;9;
55754;PMS5003;41674;52.290;-1.474;2023-06-22T13:30:44;9;9;
55754;PMS5003;41674;52.290;-1.474;2023-06-22T13:33:14;9;8;
55754;PMS5003;41674;52.290;-1.474;2023-06-22T13:35:43;11;10;
55754;PMS5003;41674;52.290;-1.474;2023-06-22T13:38:13;9;7;
55754;PMS5003;41674;52.290;-1.474;2023-06-22T13:40:42;8;8;
55754;PMS5003;41674;52.290;-1.474;2023-06-22T13:43:11;10;9;
55754;PMS5003;41674;52.290;-1.474;2023-06-22T13:45:41;13;11;
55754;PMS5003;41674;52.290;-1.474;2023-06-22T13:48:10;12;11;
55754;PMS5003;41674;52.290;-1.474;2023-06-22T13:50:40;11;11;
55754;PMS5003;41674;52.290;-1.474;2023-06-22T13:53:10;14;13;
55754;PMS5003;41674;52.290;-1.474;2023-06-22T13:55:39;10;8;
55754;PMS5003;41674;52.290;-1.474;2023-06-22T13:58:09;13;12;
55754;PMS5003;41674;52.290;-1.474;2023-06-22T14:00:39;14;14;
55754;PMS5003;41674;52.290;-1.474;2023-06-22T14:03:09;9;8;
55754;PMS5003;41674;52.290;-1.474;2023-06-22T14:05:38;7;7;
55754;PMS5003;41674;52.290;-1.474;2023-06-22T14:08:07;6;6;
55754;PMS5003;41674;52.290;-1.474;2023-06-22T14:10:37;9;9;
55754;PMS5003;41674;52.290;-1.474;2023-06-22T14:13:07;5;5;
55754;PMS5003;41674;52.290;-1.474;2023-06-22T14:15:36;7;6;
55754;PMS5003;41674;52.290;-1.474;2023-06-22T14:18:06;6;5;
55754;PMS5003;41674;52.290;-1.474;2023-06-22T14:20:35;7;7;
55754;PMS5003;41674;52.290;-1.474;2023-06-22T14:23:04;8;8;
55754;PMS5003;41674;52.290;-1.474;2023-06-22T14:25:34;6;6;
55754;PMS5003;41674;52.290;-1.474;2023-06-22T14:28:04;6;6;
55754;PMS5003;41674;52.290;-1.474;2023-06-22T14:30:33;6;6;
55754;PMS5003;41674;52.290;-1.474;2023-06-22T14:33:03;5;5;
55754;PMS5003;41674;52.290;-1.474;2023-06-22T14:35:32;8;8;
55754;PMS5003;41674;52.290;-1.474;2023-06-22T14:38:01;8;8;
55754;PMS5003;41674;52.290;-1.474;2023-06-22T14:40:30;7;6;
55754;PMS5003;41674;52.290;-1.474;2023-06-22T14:43:00;10;9;
55754;PMS5003;41674;52.290;-1.474;2023-06-22T14:45:29;7;7;
55754;PMS5003;41674;52.290;-1.474;2023-06-22T14:47:59;7;7;
55754;PMS5003;41674;52.290;-1.474;2023-06-22T14:50:28;9;8;
55754;PMS5003;41674;52.290;-1.474;2023-06-22T14:52:58;8;7;
55754;PMS5003;41674;52.290;-1.474;2023-06-22T14:55:27;6;6;
55754;PMS5003;41674;52.290;-1.474;2023-06-22T14:57:57;7;7;
55754;PMS5003;41674;52.290;-1.474;2023-06-22T15:00:26;10;9;
55754;PMS5003;41674;52.290;-1.474;2023-06-22T15:02:56;5;5;
55754;PMS5003;41674;52.290;-1.474;2023-06-22T15:05:25;6;6;
55754;PMS5003;41674;52.290;-1.474;2023-06-22T15:07:54;8;8;
55754;PMS5003;41674;52.290;-1.474;2023-06-22T15:10:24;6;6;
55754;PMS5003;41674;52.290;-1.474;2023-06-22T15:12:54;6;5;
55754;PMS5003;41674;52.290;-1.474;2023-06-22T15:15:23;8;7;
55754;PMS5003;41674;52.290;-1.474;2023-06-22T15:17:52;14;14;
55754;PMS5003;41674;52.290;-1.474;2023-06-22T15:20:22;14;14;
55754;PMS5003;41674;52.290;-1.474;2023-06-22T15:22:52;10;10;
55754;PMS5003;41674;52.290;-1.474;2023-06-22T15:25:21;11;11;
55754;PMS5003;41674;52.290;-1.474;2023-06-22T15:27:51;13;12;
55754;PMS5003;41674;52.290;-1.474;2023-06-22T15:30:20;12;12;
55754;PMS5003;41674;52.290;-1.474;2023-06-22T15:32:50;11;11;
55754;PMS5003;41674;52.290;-1.474;2023-06-22T15:35:19;9;9;
55754;PMS5003;41674;52.290;-1.474;2023-06-22T15:37:48;8;7;
55754;PMS5003;41674;52.290;-1.474;2023-06-22T15:40:18;7;6;
55754;PMS5003;41674;52.290;-1.474;2023-06-22T15:42:49;8;8;
55754;PMS5003;41674;52.290;-1.474;2023-06-22T15:45:16;8;8;
55754;PMS5003;41674;52.290;-1.474;2023-06-22T15:47:46;11;10;
55754;PMS5003;41674;52.290;-1.474;2023-06-22T15:50:16;9;9;
55754;PMS5003;41674;52.290;-1.474;2023-06-22T15:52:45;10;9;
55754;PMS5003;41674;52.290;-1.474;2023-06-22T15:55:15;9;9;
55754;PMS5003;41674;52.290;-1.474;2023-06-22T15:57:44;9;9;
55754;PMS5003;41674;52.290;-1.474;2023-06-22T16:00:14;10;9;
55754;PMS5003;41674;52.290;-1.474;2023-06-22T16:02:44;7;7;
55754;PMS5003;41674;52.290;-1.474;2023-06-22T16:05:13;10;10;
55754;PMS5003;41674;52.290;-1.474;2023-06-22T16:07:42;10;9;
55754;PMS5003;41674;52.290;-1.474;2023-06-22T16:10:12;11;10;
55754;PMS5003;41674;52.290;-1.474;2023-06-22T16:12:41;10;8;
55754;PMS5003;41674;52.290;-1.474;2023-06-22T16:15:11;11;10;
55754;PMS5003;41674;52.290;-1.474;2023-06-22T16:17:40;13;10;
55754;PMS5003;41674;52.290;-1.474;2023-06-22T16:20:10;6;6;
55754;PMS5003;41674;52.290;-1.474;2023-06-22T16:22:39;9;9;
55754;PMS5003;41674;52.290;-1.474;2023-06-22T16:25:08;7;7;
55754;PMS5003;41674;52.290;-1.474;2023-06-22T16:27:38;8;8;
55754;PMS5003;41674;52.290;-1.474;2023-06-22T16:30:07;6;6;
55754;PMS5003;41674;52.290;-1.474;2023-06-22T16:32:37;8;8;
55754;PMS5003;41674;52.290;-1.474;2023-06-22T16:35:07;9;7;
55754;PMS5003;41674;52.290;-1.474;2023-06-22T16:37:36;8;7;
55754;PMS5003;41674;52.290;-1.474;2023-06-22T16:40:07;7;7;
55754;PMS5003;41674;52.290;-1.474;2023-06-22T16:42:35;9;9;